Skip Navigation

Christman Field Latest Observations

Switch to metric unitsOther observation timesWeekly graphs

Date Time
MST
Temp
°F
RH
%
DewPt
°F
Wind
mph
Dir
°
Gust
mph
Dir
°
Press
in Hg
Solar
W/m^2
Prec
in
2018-12-17 02:25 28.4 54.6 14.1 3.4 288 4.7 287 24.956 0.0 0.00
2018-12-17 02:20 27.5 59.2 15.2 2.1 300 3.4 298 24.957 0.0 0.00
2018-12-17 02:15 29.1 60.6 17.1 0.7 321 2.3 322 24.959 0.0 0.00
2018-12-17 02:10 30.1 56.8 16.6 2.4 322 3.2 329 24.962 0.0 0.00
2018-12-17 02:05 31.6 52.5 16.2 3.2 332 3.8 338 24.963 0.0 0.00
2018-12-17 02:00 31.7 52.2 16.2 3.1 335 4.2 337 24.964 0.0 0.00
2018-12-17 01:55 29.4 57.6 16.3 0.3 278 0.7 278 24.967 0.0 0.00
2018-12-17 01:50 28.1 61.9 16.8 0.0 278 0.0 278 24.970 0.0 0.00
2018-12-17 01:45 27.4 70.5 19.1 0.0 278 0.1 278 24.978 0.0 0.00
2018-12-17 01:40 31.0 58.8 18.3 1.7 278 2.5 278 24.977 0.0 0.00
2018-12-17 01:35 29.3 66.3 19.5 1.9 270 2.4 267 24.977 0.0 0.00
2018-12-17 01:30 29.5 72.2 21.7 1.1 266 2.1 266 24.978 0.0 0.00
2018-12-17 01:25 26.8 72.0 19.0 0.7 266 2.0 266 24.978 0.0 0.00
2018-12-17 01:20 24.2 68.6 15.4 0.0 312 0.0 312 24.975 0.0 0.00
2018-12-17 01:15 27.7 65.0 17.5 0.0 312 0.0 313 24.975 0.0 0.00
2018-12-17 01:10 28.7 58.4 16.0 0.0 313 0.0 314 24.982 0.0 0.00
2018-12-17 01:05 27.5 61.7 16.1 0.0 314 0.0 313 24.979 0.0 0.00
2018-12-17 01:00 28.7 60.7 16.8 0.1 313 0.9 314 24.975 0.0 0.00
2018-12-17 00:55 26.5 62.8 15.5 2.0 314 2.9 313 24.975 0.0 0.00
2018-12-17 00:50 30.7 57.3 17.4 2.7 314 3.6 333 24.977 0.0 0.00
2018-12-17 00:45 32.6 50.3 16.2 2.9 333 3.6 333 24.977 0.0 0.00
2018-12-17 00:40 30.4 53.5 15.5 2.8 314 3.2 294 24.977 0.0 0.00
2018-12-17 00:35 31.2 55.6 17.2 0.6 294 3.0 294 24.978 0.0 0.00
2018-12-17 00:30 31.9 52.2 16.4 0.2 235 1.1 235 24.981 0.0 0.00
2018-12-17 00:25 31.3 53.9 16.5 0.1 235 0.6 149 24.981 0.0 0.00
2018-12-17 00:20 29.4 55.0 15.2 0.4 137 1.6 137 24.981 0.0 0.00
2018-12-17 00:15 27.4 60.5 15.6 1.8 137 2.2 137 24.981 0.0 0.00
2018-12-17 00:10 27.8 61.4 16.2 3.1 135 4.7 138 24.984 0.0 0.00
2018-12-17 00:05 27.6 62.5 16.5 4.6 125 5.2 139 24.986 0.0 0.00
2018-12-17 00:00 28.6 60.7 16.8 2.9 148 4.8 147 24.983 0.0 0.00